createdAt,value
2022-09-03T00:02:45.834Z,15.50
2022-09-03T00:08:23.554Z,16.00
2022-09-03T00:11:15.329Z,15.40
2022-09-03T00:13:50.402Z,14.60
2022-09-03T00:16:23.493Z,15.40
2022-09-03T00:19:00.800Z,16.00
2022-09-03T00:21:51.711Z,15.30
2022-09-03T00:24:26.059Z,16.30
2022-09-03T00:27:00.428Z,15.10
2022-09-03T00:29:42.189Z,15.80
2022-09-03T00:32:23.321Z,15.10
2022-09-03T00:35:00.963Z,15.90
2022-09-03T00:40:14.372Z,14.90
2022-09-03T00:43:11.151Z,15.10
2022-09-03T00:46:06.189Z,13.80
2022-09-03T00:49:09.881Z,14.80
2022-09-03T00:51:56.430Z,14.60
2022-09-03T00:54:54.513Z,14.70
2022-09-03T00:58:17.865Z,14.80
2022-09-03T01:00:46.226Z,14.60
2022-09-03T01:03:40.889Z,15.40
2022-09-03T01:09:22.723Z,14.50
2022-09-03T01:12:13.743Z,14.40
2022-09-03T01:15:36.038Z,14.60
2022-09-03T01:20:54.631Z,15.10
2022-09-03T01:23:30.531Z,14.20
2022-09-03T01:26:37.857Z,15.10
2022-09-03T01:29:22.148Z,13.90
2022-09-03T01:32:15.728Z,14.00
2022-09-03T01:35:32.644Z,13.90
2022-09-03T01:38:11.720Z,13.80
2022-09-03T01:41:33.048Z,13.90
2022-09-03T01:44:22.342Z,15.00
2022-09-03T01:47:01.931Z,13.80
2022-09-03T01:52:26.373Z,13.90
2022-09-03T02:00:25.002Z,13.10
2022-09-03T02:02:53.736Z,13.80
2022-09-03T02:05:29.718Z,15.00
2022-09-03T02:10:31.764Z,12.90
2022-09-03T02:13:22.635Z,13.60
2022-09-03T02:15:53.663Z,12.80
2022-09-03T02:18:26.986Z,13.50
2022-09-03T02:20:54.809Z,13.50
2022-09-03T02:23:24.681Z,13.40
2022-09-03T02:26:02.311Z,13.30
2022-09-03T02:28:32.765Z,13.40
2022-09-03T02:31:00.276Z,13.50
2022-09-03T02:35:56.109Z,13.70
2022-09-03T02:38:26.721Z,13.60
2022-09-03T02:40:55.101Z,12.70
2022-09-03T02:44:03.160Z,13.30
2022-09-03T02:46:44.750Z,13.20
2022-09-03T02:49:12.434Z,12.70
2022-09-03T02:51:42.939Z,12.90
2022-09-03T02:54:12.563Z,13.50
2022-09-03T02:56:40.431Z,13.70
2022-09-03T02:59:09.917Z,13.10
2022-09-03T03:01:37.926Z,13.30
2022-09-03T03:04:05.298Z,13.70
2022-09-03T03:09:00.857Z,12.70
2022-09-03T03:18:53.760Z,13.20
2022-09-03T03:23:48.536Z,13.60
2022-09-03T03:26:19.487Z,13.00
2022-09-03T03:28:49.012Z,13.50
2022-09-03T03:31:22.890Z,14.20
2022-09-03T03:33:55.887Z,13.50
2022-09-03T03:36:25.936Z,13.50
2022-09-03T03:38:59.012Z,12.90
2022-09-03T03:41:34.059Z,13.00
2022-09-03T03:44:04.884Z,13.00
2022-09-03T03:46:36.261Z,12.80
2022-09-03T03:49:06.831Z,12.50
2022-09-03T03:51:35.697Z,13.40
2022-09-03T03:56:34.893Z,12.70
2022-09-03T04:01:31.292Z,12.20
2022-09-03T04:04:00.482Z,12.90
2022-09-03T04:08:56.297Z,13.30
2022-09-03T04:11:25.145Z,12.90
2022-09-03T04:16:27.762Z,12.90
2022-09-03T04:18:56.946Z,13.90
2022-09-03T04:21:30.148Z,13.00
2022-09-03T04:23:58.806Z,13.20
2022-09-03T04:26:32.612Z,13.00
2022-09-03T04:29:07.085Z,12.80
2022-09-03T04:31:36.814Z,12.70
2022-09-03T04:34:06.633Z,12.10
2022-09-03T04:39:02.973Z,13.20
2022-09-03T04:41:32.403Z,12.80
2022-09-03T04:44:00.478Z,12.90
2022-09-03T04:46:33.863Z,13.20
2022-09-03T04:49:02.074Z,13.30
2022-09-03T04:51:30.481Z,13.60
2022-09-03T04:54:02.305Z,14.60
2022-09-03T04:56:36.416Z,14.90
2022-09-03T04:59:08.921Z,16.50
2022-09-03T05:01:40.037Z,17.40
2022-09-03T05:04:08.767Z,18.10
2022-09-03T05:06:37.395Z,18.30
2022-09-03T05:14:01.120Z,20.40
2022-09-03T05:16:31.308Z,21.30
2022-09-03T05:19:01.409Z,21.40
2022-09-03T05:24:01.733Z,22.10
2022-09-03T05:26:36.600Z,22.10
2022-09-03T05:29:09.221Z,22.40
2022-09-03T05:31:40.012Z,22.40
2022-09-03T05:34:08.270Z,22.60
2022-09-03T05:36:38.564Z,22.40
2022-09-03T05:39:06.603Z,22.90
2022-09-03T05:41:34.336Z,22.90
2022-09-03T05:46:34.152Z,23.10
2022-09-03T05:49:04.175Z,23.10
2022-09-03T05:51:34.061Z,23.30
2022-09-03T05:54:02.850Z,22.30
2022-09-03T05:56:32.366Z,24.30
2022-09-03T05:59:05.789Z,24.40
2022-09-03T06:01:39.857Z,24.10
2022-09-03T06:04:13.152Z,24.70
2022-09-03T06:06:43.979Z,25.00
2022-09-03T06:09:18.228Z,24.80
2022-09-03T06:11:47.177Z,25.00
2022-09-03T06:14:16.557Z,25.20
2022-09-03T06:16:50.141Z,24.80
2022-09-03T06:19:18.248Z,26.10
2022-09-03T06:21:47.533Z,25.40
2022-09-03T06:24:28.422Z,25.50
2022-09-03T06:26:56.793Z,26.00
2022-09-03T06:31:51.853Z,25.60
2022-09-03T06:34:19.495Z,25.90
2022-09-03T06:36:46.736Z,24.20
2022-09-03T06:39:13.912Z,25.50
2022-09-03T06:44:12.062Z,27.10
2022-09-03T06:46:44.236Z,26.90
2022-09-03T06:49:12.286Z,28.70
2022-09-03T06:54:11.558Z,28.20
2022-09-03T06:56:41.728Z,28.20
2022-09-03T06:59:15.144Z,28.00
2022-09-03T07:01:46.220Z,29.00
2022-09-03T07:04:20.281Z,29.70
2022-09-03T07:09:18.581Z,28.90
2022-09-03T07:11:49.437Z,30.60
2022-09-03T07:14:19.450Z,29.60
2022-09-03T07:16:48.803Z,30.90
2022-09-03T07:19:17.049Z,32.20
2022-09-03T07:24:19.950Z,31.20
2022-09-03T07:26:48.791Z,31.90
2022-09-03T07:29:20.673Z,32.50
2022-09-03T07:31:51.946Z,33.40
2022-09-03T07:34:25.667Z,33.20
2022-09-03T07:36:55.041Z,33.50
2022-09-03T07:39:22.570Z,34.10
2022-09-03T07:41:50.773Z,35.50
2022-09-03T07:44:20.163Z,33.10
2022-09-03T07:46:51.622Z,33.30
2022-09-03T07:49:21.283Z,33.50
2022-09-03T07:51:52.385Z,34.30
2022-09-03T07:54:20.680Z,33.70
2022-09-03T07:56:48.337Z,35.90
2022-09-03T07:59:15.592Z,36.00
2022-09-03T08:01:43.173Z,35.60
2022-09-03T08:06:40.297Z,35.50
2022-09-03T08:09:13.938Z,35.50
2022-09-03T08:11:43.664Z,34.70
2022-09-03T08:14:13.826Z,34.50
2022-09-03T08:16:50.020Z,34.70
2022-09-03T08:19:18.997Z,32.90
2022-09-03T08:21:46.658Z,34.20
2022-09-03T08:24:17.524Z,32.00
2022-09-03T08:26:50.609Z,33.80
2022-09-03T08:29:20.773Z,34.80
2022-09-03T08:31:48.664Z,34.50
2022-09-03T08:36:47.603Z,35.50
2022-09-03T08:39:15.331Z,35.70
2022-09-03T08:42:03.993Z,35.50
2022-09-03T08:44:54.385Z,35.80
2022-09-03T08:47:49.687Z,35.00
2022-09-03T08:50:32.840Z,36.00
2022-09-03T08:53:06.786Z,35.60
2022-09-03T08:55:46.913Z,35.80
2022-09-03T08:58:21.221Z,35.50
2022-09-03T09:01:04.677Z,35.40
2022-09-03T09:04:03.506Z,35.10
2022-09-03T09:06:59.085Z,35.10
2022-09-03T09:09:51.521Z,36.70
2022-09-03T09:12:27.890Z,35.30
2022-09-03T09:15:24.119Z,36.30
2022-09-03T09:18:31.243Z,34.80
2022-09-03T09:21:21.937Z,36.40
2022-09-03T09:23:51.699Z,35.30
2022-09-03T09:26:22.149Z,36.00
2022-09-03T09:29:05.667Z,34.60
2022-09-03T09:31:38.811Z,34.20
2022-09-03T09:34:11.148Z,34.90
2022-09-03T09:36:51.395Z,34.20
2022-09-03T09:39:19.364Z,33.70
2022-09-03T09:42:09.713Z,34.20
2022-09-03T09:44:43.484Z,35.40
2022-09-03T09:47:31.702Z,34.10
2022-09-03T09:50:03.377Z,35.80
2022-09-03T09:52:31.670Z,34.40
2022-09-03T09:55:20.780Z,33.50
2022-09-03T09:57:47.991Z,33.20
2022-09-03T10:00:18.458Z,33.20
2022-09-03T10:02:56.830Z,34.10
2022-09-03T10:05:33.735Z,34.20
2022-09-03T10:08:05.601Z,33.80
2022-09-03T10:10:49.289Z,33.90
2022-09-03T10:13:40.646Z,34.10
2022-09-03T10:16:26.430Z,33.60
2022-09-03T10:19:18.306Z,33.50
2022-09-03T10:22:09.533Z,33.30
2022-09-03T10:24:56.783Z,33.10
2022-09-03T10:27:24.282Z,32.10
2022-09-03T10:33:01.369Z,32.90
2022-09-03T10:35:38.006Z,34.30
2022-09-03T10:38:33.397Z,32.20
2022-09-03T10:41:34.302Z,33.00
2022-09-03T10:46:45.138Z,33.00
2022-09-03T10:49:57.077Z,32.80
2022-09-03T10:53:00.475Z,33.10
2022-09-03T10:55:51.677Z,33.10
2022-09-03T10:59:07.166Z,33.50
2022-09-03T11:02:25.485Z,33.10
2022-09-03T11:05:09.772Z,34.00
2022-09-03T11:07:51.059Z,34.50
2022-09-03T11:10:30.978Z,33.30
2022-09-03T11:16:01.241Z,33.50
2022-09-03T11:18:48.813Z,32.80
2022-09-03T11:21:22.297Z,32.80
2022-09-03T11:24:18.741Z,33.10
2022-09-03T11:27:19.708Z,33.00
2022-09-03T11:32:28.219Z,33.50
2022-09-03T11:34:55.936Z,32.70
2022-09-03T11:37:31.632Z,34.20
2022-09-03T11:40:21.967Z,31.10
2022-09-03T11:42:49.276Z,33.20
2022-09-03T11:45:30.315Z,31.80
2022-09-03T11:47:57.560Z,31.30
2022-09-03T11:50:33.903Z,32.20
2022-09-03T11:53:37.269Z,33.00
2022-09-03T11:56:07.497Z,31.80
2022-09-03T11:58:43.167Z,33.80
2022-09-03T12:01:18.285Z,31.50
2022-09-03T12:03:53.102Z,31.20
2022-09-03T12:09:35.672Z,30.40
2022-09-03T12:12:22.890Z,32.90
2022-09-03T12:14:58.835Z,32.90
2022-09-03T12:18:14.909Z,31.90
2022-09-03T12:20:43.732Z,32.10
2022-09-03T12:23:28.923Z,32.00
2022-09-03T12:28:28.340Z,32.30
2022-09-03T12:33:36.020Z,32.10
2022-09-03T12:38:40.641Z,32.40
2022-09-03T12:41:31.303Z,31.10
2022-09-03T12:44:01.044Z,30.60
2022-09-03T12:46:33.635Z,31.50
2022-09-03T12:52:10.685Z,31.50
2022-09-03T12:54:50.681Z,31.10
2022-09-03T12:57:26.584Z,31.60
2022-09-03T13:00:04.427Z,31.10
2022-09-03T13:02:41.071Z,30.90
2022-09-03T13:05:17.977Z,31.50
2022-09-03T13:07:57.087Z,31.00
2022-09-03T13:10:30.600Z,30.60
2022-09-03T13:13:07.669Z,30.00
2022-09-03T13:15:35.802Z,30.10
2022-09-03T13:18:25.935Z,30.70
2022-09-03T13:21:35.596Z,28.60
2022-09-03T13:24:10.615Z,30.60
2022-09-03T13:26:57.060Z,29.00
2022-09-03T13:29:30.122Z,28.30
2022-09-03T13:32:17.281Z,27.20
2022-09-03T13:35:16.994Z,28.40
2022-09-03T13:38:14.443Z,28.50
2022-09-03T13:41:29.465Z,27.60
2022-09-03T13:44:18.390Z,27.80
2022-09-03T13:47:14.627Z,28.10
2022-09-03T13:50:22.845Z,28.70
2022-09-03T13:53:14.921Z,27.70
2022-09-03T13:55:54.686Z,27.80
2022-09-03T13:59:00.277Z,27.70
2022-09-03T14:02:17.084Z,27.90
2022-09-03T14:05:15.053Z,28.30
2022-09-03T14:07:57.206Z,28.40
2022-09-03T14:10:59.600Z,28.40
2022-09-03T14:14:10.524Z,27.70
2022-09-03T14:17:02.353Z,28.20
2022-09-03T14:19:52.551Z,28.40
2022-09-03T14:22:39.656Z,27.80
2022-09-03T14:25:20.598Z,28.00
2022-09-03T14:27:50.441Z,27.20
2022-09-03T14:33:11.615Z,28.10
2022-09-03T14:36:06.452Z,28.10
2022-09-03T14:39:20.158Z,28.40
2022-09-03T14:42:06.799Z,27.10
2022-09-03T14:45:06.589Z,27.90
2022-09-03T14:48:23.993Z,26.90
2022-09-03T14:51:09.060Z,27.50
2022-09-03T14:54:07.297Z,25.70
2022-09-03T14:56:55.811Z,25.40
2022-09-03T14:59:56.113Z,25.80
2022-09-03T15:02:47.170Z,25.40
2022-09-03T15:05:34.509Z,25.70
2022-09-03T15:08:17.767Z,26.80
2022-09-03T15:11:18.901Z,26.30
2022-09-03T15:13:53.586Z,26.10
2022-09-03T15:17:17.227Z,24.60
2022-09-03T15:20:09.274Z,26.80
2022-09-03T15:23:26.077Z,26.80
2022-09-03T15:26:36.640Z,26.60
2022-09-03T15:29:33.866Z,26.00
2022-09-03T15:32:06.668Z,25.90
2022-09-03T15:35:05.939Z,27.30
2022-09-03T15:37:45.975Z,25.80
2022-09-03T15:40:46.019Z,24.30
2022-09-03T15:43:33.848Z,25.70
2022-09-03T15:46:39.114Z,24.90
2022-09-03T15:49:20.896Z,25.80
2022-09-03T15:52:01.630Z,25.50
2022-09-03T15:54:48.049Z,25.80
2022-09-03T15:57:33.356Z,25.20
2022-09-03T16:00:21.239Z,24.20
2022-09-03T16:03:11.561Z,26.80
2022-09-03T16:05:50.911Z,25.10
2022-09-03T16:08:55.949Z,24.70
2022-09-03T16:11:45.221Z,24.90
2022-09-03T16:14:45.193Z,25.00
2022-09-03T16:17:27.874Z,24.20
2022-09-03T16:20:23.988Z,26.50
2022-09-03T16:23:14.278Z,25.00
2022-09-03T16:26:27.792Z,23.30
2022-09-03T16:29:13.893Z,25.10
2022-09-03T16:35:01.889Z,24.00
2022-09-03T16:38:02.401Z,24.20
2022-09-03T16:40:49.918Z,23.10
2022-09-03T16:43:59.435Z,24.70
2022-09-03T16:47:11.183Z,24.10
2022-09-03T16:50:05.976Z,24.10
2022-09-03T16:52:43.398Z,23.30
2022-09-03T16:55:51.982Z,23.80
2022-09-03T16:58:39.731Z,23.30
2022-09-03T17:01:35.956Z,23.10
2022-09-03T17:04:52.930Z,24.80
2022-09-03T17:07:54.441Z,24.40
2022-09-03T17:10:39.632Z,23.40
2022-09-03T17:13:40.641Z,22.80
2022-09-03T17:16:50.336Z,23.50
2022-09-03T17:19:52.208Z,22.30
2022-09-03T17:23:00.332Z,22.90
2022-09-03T17:25:37.226Z,22.30
2022-09-03T17:28:16.111Z,21.80
2022-09-03T17:30:59.247Z,22.70
2022-09-03T17:34:07.647Z,22.30
2022-09-03T17:36:42.253Z,23.00
2022-09-03T17:39:45.692Z,21.90
2022-09-03T17:42:27.883Z,21.70
2022-09-03T17:45:20.872Z,22.00
2022-09-03T17:48:22.736Z,21.90
2022-09-03T17:51:06.318Z,22.90
2022-09-03T17:53:53.869Z,22.60
2022-09-03T17:57:10.634Z,21.60
2022-09-03T18:00:27.957Z,19.60
2022-09-03T18:03:25.263Z,22.40
2022-09-03T18:06:09.121Z,21.40
2022-09-03T18:09:05.338Z,22.00
2022-09-03T18:11:49.292Z,21.20
2022-09-03T18:14:53.018Z,20.70
2022-09-03T18:17:46.216Z,21.70
2022-09-03T18:20:33.798Z,19.60
2022-09-03T18:23:35.733Z,21.20
2022-09-03T18:26:46.930Z,19.30
2022-09-03T18:29:54.429Z,20.80
2022-09-03T18:32:40.726Z,21.90
2022-09-03T18:35:28.145Z,20.50
2022-09-03T18:38:14.886Z,19.40
2022-09-03T18:41:35.600Z,19.10
2022-09-03T18:44:48.188Z,19.80
2022-09-03T18:48:25.530Z,20.40
2022-09-03T18:51:50.178Z,19.80
2022-09-03T18:55:08.916Z,19.10
2022-09-03T18:58:36.575Z,19.40
2022-09-03T19:01:52.503Z,19.60
2022-09-03T19:05:03.147Z,19.20
2022-09-03T19:08:28.574Z,19.90
2022-09-03T19:11:29.137Z,19.70
2022-09-03T19:14:22.262Z,19.10
2022-09-03T19:17:25.293Z,18.30
2022-09-03T19:20:21.459Z,19.10
2022-09-03T19:23:07.258Z,19.30
2022-09-03T19:25:55.185Z,18.70
2022-09-03T19:28:45.272Z,18.90
2022-09-03T19:31:58.374Z,19.00
2022-09-03T19:35:29.730Z,19.70
2022-09-03T19:38:43.568Z,19.00
2022-09-03T19:41:48.202Z,18.80
2022-09-03T19:45:26.620Z,18.70
2022-09-03T19:48:37.644Z,17.80
2022-09-03T19:54:22.764Z,17.10
2022-09-03T19:57:11.070Z,18.10
2022-09-03T19:59:59.938Z,17.70
2022-09-03T20:02:46.259Z,17.10
2022-09-03T20:05:40.343Z,17.50
2022-09-03T20:08:27.170Z,17.20
2022-09-03T20:10:59.183Z,17.50
2022-09-03T20:13:26.533Z,17.30
2022-09-03T20:16:15.220Z,17.60
2022-09-03T20:18:48.419Z,17.90
2022-09-03T20:21:26.075Z,17.30
2022-09-03T20:24:04.960Z,17.20
2022-09-03T20:29:49.957Z,17.30
2022-09-03T20:32:44.754Z,17.30
2022-09-03T20:36:02.836Z,17.30
2022-09-03T20:41:40.572Z,17.10
2022-09-03T20:44:47.780Z,17.10
2022-09-03T20:47:43.162Z,16.40
2022-09-03T20:50:47.166Z,16.60
2022-09-03T20:53:50.634Z,17.90
2022-09-03T20:56:30.536Z,16.00
2022-09-03T20:59:34.472Z,17.50
2022-09-03T21:02:13.172Z,16.00
2022-09-03T21:05:01.623Z,17.50
2022-09-03T21:08:05.166Z,16.70
2022-09-03T21:10:44.368Z,16.30
2022-09-03T21:13:49.845Z,16.20
2022-09-03T21:16:31.649Z,16.30
2022-09-03T21:19:19.805Z,15.70
2022-09-03T21:22:22.831Z,15.80
2022-09-03T21:24:57.199Z,16.30
2022-09-03T21:27:36.345Z,16.10
2022-09-03T21:30:13.171Z,17.80
2022-09-03T21:32:56.396Z,16.00
2022-09-03T21:35:50.242Z,16.10
2022-09-03T21:38:27.002Z,16.00
2022-09-03T21:41:11.649Z,16.40
2022-09-03T21:44:03.983Z,16.40
2022-09-03T21:46:45.206Z,16.90
2022-09-03T21:49:21.889Z,16.30
2022-09-03T21:52:27.450Z,16.20
2022-09-03T21:54:55.764Z,15.40
2022-09-03T21:57:42.603Z,16.30
2022-09-03T22:00:21.616Z,16.20
2022-09-03T22:02:50.310Z,16.20
2022-09-03T22:08:23.295Z,16.30
2022-09-03T22:16:13.490Z,15.40
2022-09-03T22:18:41.268Z,17.60
2022-09-03T22:21:27.130Z,16.00
2022-09-03T22:24:24.687Z,16.20
2022-09-03T22:27:01.859Z,15.50
2022-09-03T22:30:03.275Z,16.50
2022-09-03T22:33:07.299Z,16.10
2022-09-03T22:35:52.563Z,16.00
2022-09-03T22:39:04.207Z,15.90
2022-09-03T22:42:08.327Z,16.20
2022-09-03T22:45:18.423Z,15.40
2022-09-03T22:48:33.662Z,16.70
2022-09-03T22:51:03.856Z,15.60
2022-09-03T22:54:16.111Z,17.30
2022-09-03T22:56:45.493Z,15.90
2022-09-03T22:59:37.424Z,16.00
2022-09-03T23:02:22.443Z,16.00
2022-09-03T23:05:14.071Z,16.10
2022-09-03T23:08:14.469Z,17.60
2022-09-03T23:11:12.481Z,15.70
2022-09-03T23:13:49.407Z,16.70
2022-09-03T23:16:37.903Z,16.10
2022-09-03T23:19:44.910Z,16.50
2022-09-03T23:22:59.612Z,16.40
2022-09-03T23:25:37.324Z,16.10
2022-09-03T23:28:33.045Z,15.80
2022-09-03T23:31:25.197Z,17.20
2022-09-03T23:33:55.683Z,16.50
2022-09-03T23:37:33.786Z,16.10
2022-09-03T23:40:28.009Z,15.90
2022-09-03T23:43:35.656Z,16.40
2022-09-03T23:46:38.647Z,16.70
2022-09-03T23:49:38.870Z,17.60
2022-09-03T23:52:46.431Z,16.60
2022-09-03T23:55:49.134Z,16.30
2022-09-03T23:58:53.574Z,16.80
